sensor_id;sensor_type;location;lat;lon;timestamp;P1;durP1;ratioP1;P2;durP2;ratioP2
28714;SDS011;15886;49.170;14.572;2022-11-20T00:28:31;48.58;;;22.60;;
28714;SDS011;15886;49.170;14.572;2022-11-20T00:33:33;46.28;;;23.23;;
28714;SDS011;15886;49.170;14.572;2022-11-20T00:36:03;45.53;;;23.48;;
28714;SDS011;15886;49.170;14.572;2022-11-20T00:38:32;44.17;;;22.38;;
28714;SDS011;15886;49.170;14.572;2022-11-20T00:41:02;55.65;;;27.60;;
28714;SDS011;15886;49.170;14.572;2022-11-20T00:43:31;53.88;;;28.15;;
28714;SDS011;15886;49.170;14.572;2022-11-20T00:46:04;50.70;;;24.77;;
28714;SDS011;15886;49.170;14.572;2022-11-20T00:48:34;45.92;;;24.05;;
28714;SDS011;15886;49.170;14.572;2022-11-20T00:51:03;47.28;;;24.58;;
28714;SDS011;15886;49.170;14.572;2022-11-20T00:53:32;48.80;;;25.30;;
28714;SDS011;15886;49.170;14.572;2022-11-20T00:56:02;50.78;;;25.85;;
28714;SDS011;15886;49.170;14.572;2022-11-20T00:58:32;56.70;;;25.85;;
28714;SDS011;15886;49.170;14.572;2022-11-20T01:01:01;55.10;;;27.27;;
28714;SDS011;15886;49.170;14.572;2022-11-20T01:03:33;64.85;;;31.52;;
28714;SDS011;15886;49.170;14.572;2022-11-20T01:06:06;50.90;;;27.77;;
28714;SDS011;15886;49.170;14.572;2022-11-20T01:08:36;54.80;;;27.85;;
28714;SDS011;15886;49.170;14.572;2022-11-20T01:11:05;48.92;;;24.88;;
28714;SDS011;15886;49.170;14.572;2022-11-20T01:13:34;50.85;;;24.90;;
28714;SDS011;15886;49.170;14.572;2022-11-20T01:16:08;58.35;;;27.80;;
28714;SDS011;15886;49.170;14.572;2022-11-20T01:18:37;54.05;;;27.02;;
28714;SDS011;15886;49.170;14.572;2022-11-20T01:21:09;53.92;;;29.05;;
28714;SDS011;15886;49.170;14.572;2022-11-20T01:23:41;50.25;;;26.17;;
28714;SDS011;15886;49.170;14.572;2022-11-20T01:26:17;47.67;;;25.83;;
28714;SDS011;15886;49.170;14.572;2022-11-20T01:28:46;122.00;;;51.13;;
28714;SDS011;15886;49.170;14.572;2022-11-20T01:31:18;82.85;;;38.33;;
28714;SDS011;15886;49.170;14.572;2022-11-20T01:36:52;57.78;;;29.00;;
28714;SDS011;15886;49.170;14.572;2022-11-20T01:39:41;61.63;;;27.20;;
28714;SDS011;15886;49.170;14.572;2022-11-20T01:52:45;47.25;;;24.20;;
28714;SDS011;15886;49.170;14.572;2022-11-20T01:55:22;49.25;;;24.77;;
28714;SDS011;15886;49.170;14.572;2022-11-20T02:02:14;49.28;;;24.88;;
28714;SDS011;15886;49.170;14.572;2022-11-20T02:04:42;49.35;;;24.98;;
28714;SDS011;15886;49.170;14.572;2022-11-20T02:07:12;49.42;;;26.00;;
28714;SDS011;15886;49.170;14.572;2022-11-20T02:09:46;60.03;;;27.80;;
28714;SDS011;15886;49.170;14.572;2022-11-20T02:12:45;49.15;;;26.13;;
28714;SDS011;15886;49.170;14.572;2022-11-20T02:26:04;50.05;;;24.95;;
28714;SDS011;15886;49.170;14.572;2022-11-20T02:28:34;47.95;;;23.83;;
28714;SDS011;15886;49.170;14.572;2022-11-20T02:31:04;48.38;;;24.65;;
28714;SDS011;15886;49.170;14.572;2022-11-20T02:33:33;51.92;;;23.20;;
28714;SDS011;15886;49.170;14.572;2022-11-20T02:36:03;44.13;;;22.52;;
28714;SDS011;15886;49.170;14.572;2022-11-20T02:38:31;45.40;;;23.00;;
28714;SDS011;15886;49.170;14.572;2022-11-20T02:41:00;48.38;;;25.75;;
28714;SDS011;15886;49.170;14.572;2022-11-20T02:43:28;56.53;;;26.25;;
28714;SDS011;15886;49.170;14.572;2022-11-20T02:45:57;46.63;;;24.42;;
28714;SDS011;15886;49.170;14.572;2022-11-20T02:48:26;51.22;;;24.92;;
28714;SDS011;15886;49.170;14.572;2022-11-20T02:50:57;52.60;;;25.83;;
28714;SDS011;15886;49.170;14.572;2022-11-20T02:53:25;51.22;;;24.17;;
28714;SDS011;15886;49.170;14.572;2022-11-20T02:55:54;54.83;;;28.05;;
28714;SDS011;15886;49.170;14.572;2022-11-20T02:58:24;49.65;;;26.33;;
28714;SDS011;15886;49.170;14.572;2022-11-20T03:00:56;44.92;;;23.50;;
28714;SDS011;15886;49.170;14.572;2022-11-20T03:03:26;51.33;;;25.05;;
28714;SDS011;15886;49.170;14.572;2022-11-20T03:05:55;53.42;;;24.50;;
28714;SDS011;15886;49.170;14.572;2022-11-20T03:08:23;48.33;;;24.80;;
28714;SDS011;15886;49.170;14.572;2022-11-20T03:10:51;53.65;;;26.10;;
28714;SDS011;15886;49.170;14.572;2022-11-20T03:13:20;48.90;;;25.17;;
28714;SDS011;15886;49.170;14.572;2022-11-20T03:15:50;52.72;;;24.67;;
28714;SDS011;15886;49.170;14.572;2022-11-20T03:18:21;54.33;;;27.20;;
28714;SDS011;15886;49.170;14.572;2022-11-20T03:20:56;51.58;;;27.00;;
28714;SDS011;15886;49.170;14.572;2022-11-20T03:23:24;48.63;;;24.83;;
28714;SDS011;15886;49.170;14.572;2022-11-20T03:25:53;52.35;;;24.88;;
28714;SDS011;15886;49.170;14.572;2022-11-20T03:39:14;53.15;;;24.65;;
28714;SDS011;15886;49.170;14.572;2022-11-20T03:41:51;52.50;;;24.88;;
28714;SDS011;15886;49.170;14.572;2022-11-20T03:45:14;50.30;;;25.50;;
28714;SDS011;15886;49.170;14.572;2022-11-20T03:51:32;54.47;;;25.92;;
28714;SDS011;15886;49.170;14.572;2022-11-20T03:54:04;55.97;;;25.73;;
28714;SDS011;15886;49.170;14.572;2022-11-20T03:56:46;58.00;;;26.40;;
28714;SDS011;15886;49.170;14.572;2022-11-20T03:59:20;55.08;;;26.00;;
28714;SDS011;15886;49.170;14.572;2022-11-20T04:02:01;51.75;;;25.45;;
28714;SDS011;15886;49.170;14.572;2022-11-20T04:04:50;407.50;;;171.70;;
28714;SDS011;15886;49.170;14.572;2022-11-20T04:07:23;239.43;;;100.05;;
28714;SDS011;15886;49.170;14.572;2022-11-20T04:09:53;76.88;;;37.65;;
28714;SDS011;15886;49.170;14.572;2022-11-20T04:13:03;54.42;;;26.55;;
28714;SDS011;15886;49.170;14.572;2022-11-20T04:16:18;55.83;;;27.25;;
28714;SDS011;15886;49.170;14.572;2022-11-20T04:19:35;49.17;;;24.25;;
28714;SDS011;15886;49.170;14.572;2022-11-20T04:22:09;52.67;;;26.60;;
28714;SDS011;15886;49.170;14.572;2022-11-20T04:25:14;56.92;;;27.90;;
28714;SDS011;15886;49.170;14.572;2022-11-20T04:27:47;66.57;;;30.83;;
28714;SDS011;15886;49.170;14.572;2022-11-20T04:30:30;86.10;;;31.65;;
28714;SDS011;15886;49.170;14.572;2022-11-20T04:33:12;63.03;;;28.42;;
28714;SDS011;15886;49.170;14.572;2022-11-20T04:35:48;61.42;;;28.98;;
28714;SDS011;15886;49.170;14.572;2022-11-20T04:38:37;58.75;;;28.25;;
28714;SDS011;15886;49.170;14.572;2022-11-20T04:41:07;53.67;;;26.60;;
28714;SDS011;15886;49.170;14.572;2022-11-20T04:43:36;55.92;;;26.05;;
28714;SDS011;15886;49.170;14.572;2022-11-20T04:46:06;54.05;;;25.92;;
28714;SDS011;15886;49.170;14.572;2022-11-20T04:49:10;65.28;;;28.83;;
28714;SDS011;15886;49.170;14.572;2022-11-20T04:51:39;64.35;;;29.38;;
28714;SDS011;15886;49.170;14.572;2022-11-20T04:54:12;54.05;;;25.42;;
28714;SDS011;15886;49.170;14.572;2022-11-20T04:56:43;53.08;;;25.35;;
28714;SDS011;15886;49.170;14.572;2022-11-20T04:59:15;59.80;;;26.35;;
28714;SDS011;15886;49.170;14.572;2022-11-20T05:01:44;59.60;;;27.73;;
28714;SDS011;15886;49.170;14.572;2022-11-20T05:04:33;54.78;;;27.55;;
28714;SDS011;15886;49.170;14.572;2022-11-20T05:07:01;53.80;;;27.15;;
28714;SDS011;15886;49.170;14.572;2022-11-20T05:09:29;57.35;;;26.73;;
28714;SDS011;15886;49.170;14.572;2022-11-20T05:11:58;62.78;;;27.95;;
28714;SDS011;15886;49.170;14.572;2022-11-20T05:14:27;58.42;;;26.77;;
28714;SDS011;15886;49.170;14.572;2022-11-20T05:16:55;61.28;;;27.20;;
28714;SDS011;15886;49.170;14.572;2022-11-20T05:19:24;57.50;;;27.90;;
28714;SDS011;15886;49.170;14.572;2022-11-20T05:21:52;60.30;;;27.15;;
28714;SDS011;15886;49.170;14.572;2022-11-20T05:24:20;55.28;;;26.75;;
28714;SDS011;15886;49.170;14.572;2022-11-20T05:26:49;104.82;;;36.70;;
28714;SDS011;15886;49.170;14.572;2022-11-20T05:29:20;77.75;;;30.55;;
28714;SDS011;15886;49.170;14.572;2022-11-20T05:32:39;62.10;;;28.75;;
28714;SDS011;15886;49.170;14.572;2022-11-20T05:35:10;68.97;;;29.92;;
28714;SDS011;15886;49.170;14.572;2022-11-20T05:37:39;59.83;;;28.35;;
28714;SDS011;15886;49.170;14.572;2022-11-20T05:43:59;56.78;;;27.15;;
28714;SDS011;15886;49.170;14.572;2022-11-20T05:53:21;54.28;;;25.65;;
28714;SDS011;15886;49.170;14.572;2022-11-20T06:36:23;64.30;;;27.90;;
28714;SDS011;15886;49.170;14.572;2022-11-20T06:38:53;68.70;;;30.40;;
28714;SDS011;15886;49.170;14.572;2022-11-20T06:53:42;63.80;;;28.27;;
28714;SDS011;15886;49.170;14.572;2022-11-20T06:56:37;68.25;;;32.05;;
28714;SDS011;15886;49.170;14.572;2022-11-20T07:00:04;71.10;;;32.47;;
28714;SDS011;15886;49.170;14.572;2022-11-20T07:02:34;71.63;;;33.00;;
28714;SDS011;15886;49.170;14.572;2022-11-20T07:17:04;301.40;;;71.20;;
28714;SDS011;15886;49.170;14.572;2022-11-20T07:19:33;96.78;;;49.35;;
28714;SDS011;15886;49.170;14.572;2022-11-20T07:22:02;67.38;;;31.85;;
28714;SDS011;15886;49.170;14.572;2022-11-20T07:24:33;74.65;;;31.60;;
28714;SDS011;15886;49.170;14.572;2022-11-20T07:30:00;71.63;;;29.88;;
28714;SDS011;15886;49.170;14.572;2022-11-20T07:32:29;74.32;;;33.13;;
28714;SDS011;15886;49.170;14.572;2022-11-20T07:35:03;72.25;;;32.72;;
28714;SDS011;15886;49.170;14.572;2022-11-20T07:37:34;86.35;;;38.22;;
28714;SDS011;15886;49.170;14.572;2022-11-20T07:40:03;67.72;;;31.30;;
28714;SDS011;15886;49.170;14.572;2022-11-20T07:42:33;65.82;;;30.00;;
28714;SDS011;15886;49.170;14.572;2022-11-20T07:45:04;63.88;;;27.70;;
28714;SDS011;15886;49.170;14.572;2022-11-20T07:47:37;71.15;;;30.77;;
28714;SDS011;15886;49.170;14.572;2022-11-20T07:50:07;73.25;;;34.40;;
28714;SDS011;15886;49.170;14.572;2022-11-20T07:52:37;71.47;;;34.53;;
28714;SDS011;15886;49.170;14.572;2022-11-20T07:55:08;138.55;;;59.00;;
28714;SDS011;15886;49.170;14.572;2022-11-20T08:00:31;84.32;;;36.90;;
28714;SDS011;15886;49.170;14.572;2022-11-20T08:03:02;81.80;;;34.20;;
28714;SDS011;15886;49.170;14.572;2022-11-20T08:05:32;70.82;;;34.50;;
28714;SDS011;15886;49.170;14.572;2022-11-20T08:08:03;83.32;;;37.75;;
28714;SDS011;15886;49.170;14.572;2022-11-20T08:10:33;97.30;;;47.03;;
28714;SDS011;15886;49.170;14.572;2022-11-20T08:13:05;117.15;;;48.90;;
28714;SDS011;15886;49.170;14.572;2022-11-20T08:16:06;124.97;;;53.70;;
28714;SDS011;15886;49.170;14.572;2022-11-20T08:18:38;104.60;;;47.35;;
28714;SDS011;15886;49.170;14.572;2022-11-20T08:21:07;96.50;;;42.55;;
28714;SDS011;15886;49.170;14.572;2022-11-20T08:23:35;82.68;;;36.65;;
28714;SDS011;15886;49.170;14.572;2022-11-20T08:26:03;74.80;;;32.92;;
28714;SDS011;15886;49.170;14.572;2022-11-20T08:28:32;74.82;;;32.90;;
28714;SDS011;15886;49.170;14.572;2022-11-20T08:31:01;72.07;;;33.30;;
28714;SDS011;15886;49.170;14.572;2022-11-20T08:33:30;86.40;;;37.08;;
28714;SDS011;15886;49.170;14.572;2022-11-20T08:36:01;88.72;;;38.05;;
28714;SDS011;15886;49.170;14.572;2022-11-20T08:38:30;75.55;;;34.22;;
28714;SDS011;15886;49.170;14.572;2022-11-20T08:40:59;71.90;;;31.70;;
28714;SDS011;15886;49.170;14.572;2022-11-20T08:43:47;66.25;;;28.00;;
28714;SDS011;15886;49.170;14.572;2022-11-20T08:46:15;74.40;;;31.40;;
28714;SDS011;15886;49.170;14.572;2022-11-20T08:48:43;68.40;;;30.30;;
28714;SDS011;15886;49.170;14.572;2022-11-20T08:51:11;73.85;;;30.92;;
28714;SDS011;15886;49.170;14.572;2022-11-20T08:53:40;61.53;;;29.67;;
28714;SDS011;15886;49.170;14.572;2022-11-20T08:56:08;64.85;;;30.35;;
28714;SDS011;15886;49.170;14.572;2022-11-20T08:58:37;65.70;;;29.67;;
28714;SDS011;15886;49.170;14.572;2022-11-20T09:01:21;85.03;;;38.33;;
28714;SDS011;15886;49.170;14.572;2022-11-20T09:03:50;90.55;;;38.33;;
28714;SDS011;15886;49.170;14.572;2022-11-20T09:06:18;73.13;;;31.20;;
28714;SDS011;15886;49.170;14.572;2022-11-20T09:08:46;68.72;;;29.20;;
28714;SDS011;15886;49.170;14.572;2022-11-20T09:11:14;72.60;;;30.60;;
28714;SDS011;15886;49.170;14.572;2022-11-20T09:13:42;71.00;;;31.08;;
28714;SDS011;15886;49.170;14.572;2022-11-20T09:16:10;73.35;;;32.35;;
28714;SDS011;15886;49.170;14.572;2022-11-20T09:18:39;68.10;;;29.20;;
28714;SDS011;15886;49.170;14.572;2022-11-20T09:21:11;65.75;;;28.17;;
28714;SDS011;15886;49.170;14.572;2022-11-20T09:23:40;65.20;;;30.17;;
28714;SDS011;15886;49.170;14.572;2022-11-20T09:26:12;68.15;;;31.08;;
28714;SDS011;15886;49.170;14.572;2022-11-20T09:28:41;71.40;;;30.42;;
28714;SDS011;15886;49.170;14.572;2022-11-20T09:31:13;66.25;;;30.13;;
28714;SDS011;15886;49.170;14.572;2022-11-20T09:33:45;84.18;;;38.63;;
28714;SDS011;15886;49.170;14.572;2022-11-20T09:36:13;84.07;;;38.00;;
28714;SDS011;15886;49.170;14.572;2022-11-20T09:38:43;74.80;;;35.63;;
28714;SDS011;15886;49.170;14.572;2022-11-20T09:41:23;85.03;;;39.60;;
28714;SDS011;15886;49.170;14.572;2022-11-20T09:54:45;70.22;;;32.83;;
28714;SDS011;15886;49.170;14.572;2022-11-20T09:57:42;64.72;;;32.55;;
28714;SDS011;15886;49.170;14.572;2022-11-20T10:00:13;65.47;;;31.30;;
28714;SDS011;15886;49.170;14.572;2022-11-20T10:03:01;64.18;;;29.95;;
28714;SDS011;15886;49.170;14.572;2022-11-20T10:05:35;66.63;;;29.10;;
28714;SDS011;15886;49.170;14.572;2022-11-20T10:10:42;62.95;;;30.45;;
28714;SDS011;15886;49.170;14.572;2022-11-20T10:19:02;69.88;;;33.10;;
28714;SDS011;15886;49.170;14.572;2022-11-20T10:27:06;79.47;;;34.40;;
28714;SDS011;15886;49.170;14.572;2022-11-20T10:29:38;69.90;;;32.17;;
28714;SDS011;15886;49.170;14.572;2022-11-20T10:32:11;87.85;;;38.13;;
28714;SDS011;15886;49.170;14.572;2022-11-20T10:34:45;71.07;;;31.60;;
28714;SDS011;15886;49.170;14.572;2022-11-20T10:37:25;70.90;;;31.17;;
28714;SDS011;15886;49.170;14.572;2022-11-20T10:48:15;83.25;;;35.30;;
28714;SDS011;15886;49.170;14.572;2022-11-20T10:51:07;68.80;;;32.03;;
28714;SDS011;15886;49.170;14.572;2022-11-20T11:01:47;67.22;;;31.55;;
28714;SDS011;15886;49.170;14.572;2022-11-20T11:07:07;69.38;;;32.65;;
28714;SDS011;15886;49.170;14.572;2022-11-20T11:09:39;71.03;;;29.43;;
28714;SDS011;15886;49.170;14.572;2022-11-20T11:12:09;80.22;;;40.97;;
28714;SDS011;15886;49.170;14.572;2022-11-20T11:14:44;92.05;;;40.17;;
28714;SDS011;15886;49.170;14.572;2022-11-20T11:19:41;98.22;;;43.63;;
28714;SDS011;15886;49.170;14.572;2022-11-20T11:22:10;93.05;;;42.22;;
28714;SDS011;15886;49.170;14.572;2022-11-20T11:24:51;75.27;;;34.83;;
28714;SDS011;15886;49.170;14.572;2022-11-20T11:27:20;62.25;;;31.92;;
28714;SDS011;15886;49.170;14.572;2022-11-20T11:29:48;93.28;;;40.53;;
28714;SDS011;15886;49.170;14.572;2022-11-20T11:32:20;86.80;;;39.17;;
28714;SDS011;15886;49.170;14.572;2022-11-20T11:34:59;66.25;;;30.20;;
28714;SDS011;15886;49.170;14.572;2022-11-20T11:37:32;68.32;;;32.38;;
28714;SDS011;15886;49.170;14.572;2022-11-20T11:40:01;67.55;;;31.65;;
28714;SDS011;15886;49.170;14.572;2022-11-20T11:42:54;86.53;;;39.35;;
28714;SDS011;15886;49.170;14.572;2022-11-20T11:47:53;66.53;;;30.88;;
28714;SDS011;15886;49.170;14.572;2022-11-20T11:53:18;66.95;;;32.05;;
28714;SDS011;15886;49.170;14.572;2022-11-20T11:55:50;76.85;;;38.13;;
28714;SDS011;15886;49.170;14.572;2022-11-20T11:58:28;81.47;;;39.67;;
28714;SDS011;15886;49.170;14.572;2022-11-20T12:03:34;72.75;;;34.10;;
28714;SDS011;15886;49.170;14.572;2022-11-20T12:06:24;70.65;;;32.05;;
28714;SDS011;15886;49.170;14.572;2022-11-20T12:08:56;74.00;;;35.55;;
28714;SDS011;15886;49.170;14.572;2022-11-20T12:14:04;82.22;;;36.15;;
28714;SDS011;15886;49.170;14.572;2022-11-20T12:16:37;79.00;;;34.60;;
28714;SDS011;15886;49.170;14.572;2022-11-20T12:19:08;80.53;;;35.75;;
28714;SDS011;15886;49.170;14.572;2022-11-20T12:22:00;75.75;;;34.50;;
28714;SDS011;15886;49.170;14.572;2022-11-20T12:39:40;84.22;;;37.97;;
28714;SDS011;15886;49.170;14.572;2022-11-20T12:42:16;101.40;;;47.25;;
28714;SDS011;15886;49.170;14.572;2022-11-20T12:48:08;110.43;;;51.22;;
28714;SDS011;15886;49.170;14.572;2022-11-20T12:59:21;115.78;;;59.85;;
28714;SDS011;15886;49.170;14.572;2022-11-20T13:04:44;112.40;;;53.42;;
28714;SDS011;15886;49.170;14.572;2022-11-20T13:07:16;107.22;;;46.20;;
28714;SDS011;15886;49.170;14.572;2022-11-20T13:09:46;148.93;;;63.33;;
28714;SDS011;15886;49.170;14.572;2022-11-20T13:12:25;105.97;;;49.38;;
28714;SDS011;15886;49.170;14.572;2022-11-20T13:17:36;96.85;;;42.60;;
28714;SDS011;15886;49.170;14.572;2022-11-20T13:20:06;91.38;;;42.58;;
28714;SDS011;15886;49.170;14.572;2022-11-20T13:22:47;89.25;;;43.65;;
28714;SDS011;15886;49.170;14.572;2022-11-20T13:27:53;92.20;;;44.15;;
28714;SDS011;15886;49.170;14.572;2022-11-20T13:30:25;108.93;;;48.03;;
28714;SDS011;15886;49.170;14.572;2022-11-20T13:32:58;91.97;;;40.50;;
28714;SDS011;15886;49.170;14.572;2022-11-20T13:38:14;80.97;;;37.92;;
28714;SDS011;15886;49.170;14.572;2022-11-20T13:40:56;184.30;;;86.53;;
28714;SDS011;15886;49.170;14.572;2022-11-20T13:43:34;119.57;;;54.72;;
28714;SDS011;15886;49.170;14.572;2022-11-20T13:46:07;76.25;;;37.95;;
28714;SDS011;15886;49.170;14.572;2022-11-20T13:48:40;107.20;;;49.22;;
28714;SDS011;15886;49.170;14.572;2022-11-20T13:53:47;95.68;;;48.92;;
28714;SDS011;15886;49.170;14.572;2022-11-20T13:56:22;91.13;;;44.35;;
28714;SDS011;15886;49.170;14.572;2022-11-20T13:58:59;73.28;;;34.70;;
28714;SDS011;15886;49.170;14.572;2022-11-20T14:01:31;93.00;;;46.15;;
28714;SDS011;15886;49.170;14.572;2022-11-20T14:03:59;106.07;;;54.58;;
28714;SDS011;15886;49.170;14.572;2022-11-20T14:06:33;74.32;;;34.03;;
28714;SDS011;15886;49.170;14.572;2022-11-20T14:09:02;70.65;;;32.45;;
28714;SDS011;15886;49.170;14.572;2022-11-20T14:11:30;72.25;;;32.88;;
28714;SDS011;15886;49.170;14.572;2022-11-20T14:14:18;83.05;;;38.30;;
28714;SDS011;15886;49.170;14.572;2022-11-20T14:16:48;68.68;;;32.67;;
28714;SDS011;15886;49.170;14.572;2022-11-20T14:22:09;68.72;;;32.10;;
28714;SDS011;15886;49.170;14.572;2022-11-20T14:24:36;79.40;;;33.15;;
28714;SDS011;15886;49.170;14.572;2022-11-20T14:27:09;69.40;;;31.90;;
28714;SDS011;15886;49.170;14.572;2022-11-20T14:29:39;82.32;;;34.88;;
28714;SDS011;15886;49.170;14.572;2022-11-20T14:32:08;72.50;;;35.30;;
28714;SDS011;15886;49.170;14.572;2022-11-20T14:34:38;98.30;;;49.10;;
28714;SDS011;15886;49.170;14.572;2022-11-20T14:37:10;95.28;;;47.25;;
28714;SDS011;15886;49.170;14.572;2022-11-20T14:39:42;84.43;;;42.05;;
28714;SDS011;15886;49.170;14.572;2022-11-20T14:42:14;104.20;;;50.55;;
28714;SDS011;15886;49.170;14.572;2022-11-20T14:44:43;100.95;;;42.60;;
28714;SDS011;15886;49.170;14.572;2022-11-20T14:47:12;106.88;;;45.17;;
28714;SDS011;15886;49.170;14.572;2022-11-20T14:49:43;115.70;;;50.42;;
28714;SDS011;15886;49.170;14.572;2022-11-20T14:52:16;108.95;;;49.70;;
28714;SDS011;15886;49.170;14.572;2022-11-20T14:54:46;108.07;;;52.38;;
28714;SDS011;15886;49.170;14.572;2022-11-20T14:59:49;119.35;;;54.83;;
28714;SDS011;15886;49.170;14.572;2022-11-20T15:02:18;108.45;;;51.05;;
28714;SDS011;15886;49.170;14.572;2022-11-20T15:10:10;128.85;;;57.03;;
28714;SDS011;15886;49.170;14.572;2022-11-20T15:12:41;119.00;;;53.00;;
28714;SDS011;15886;49.170;14.572;2022-11-20T15:15:33;127.60;;;56.17;;
28714;SDS011;15886;49.170;14.572;2022-11-20T15:18:11;188.15;;;85.45;;
28714;SDS011;15886;49.170;14.572;2022-11-20T15:20:53;304.35;;;126.63;;
28714;SDS011;15886;49.170;14.572;2022-11-20T15:23:25;172.45;;;77.78;;
28714;SDS011;15886;49.170;14.572;2022-11-20T15:25:58;124.07;;;56.22;;
28714;SDS011;15886;49.170;14.572;2022-11-20T15:28:30;154.23;;;70.15;;
28714;SDS011;15886;49.170;14.572;2022-11-20T15:30:59;156.50;;;69.85;;
28714;SDS011;15886;49.170;14.572;2022-11-20T15:33:33;117.40;;;54.88;;
28714;SDS011;15886;49.170;14.572;2022-11-20T15:36:03;126.55;;;57.17;;
28714;SDS011;15886;49.170;14.572;2022-11-20T15:38:31;129.70;;;55.67;;
28714;SDS011;15886;49.170;14.572;2022-11-20T15:40:59;148.93;;;65.88;;
28714;SDS011;15886;49.170;14.572;2022-11-20T15:43:28;137.95;;;62.08;;
28714;SDS011;15886;49.170;14.572;2022-11-20T15:46:00;142.85;;;59.80;;
28714;SDS011;15886;49.170;14.572;2022-11-20T15:48:30;128.23;;;59.78;;
28714;SDS011;15886;49.170;14.572;2022-11-20T15:51:43;158.25;;;62.30;;
28714;SDS011;15886;49.170;14.572;2022-11-20T15:53:52;174.23;;;76.40;;
28714;SDS011;15886;49.170;14.572;2022-11-20T15:56:26;151.68;;;68.70;;
28714;SDS011;15886;49.170;14.572;2022-11-20T15:59:00;200.15;;;81.53;;
28714;SDS011;15886;49.170;14.572;2022-11-20T16:01:28;156.00;;;72.22;;
28714;SDS011;15886;49.170;14.572;2022-11-20T16:03:56;200.38;;;99.22;;
28714;SDS011;15886;49.170;14.572;2022-11-20T16:06:27;226.77;;;110.35;;
28714;SDS011;15886;49.170;14.572;2022-11-20T16:08:56;208.45;;;108.28;;
28714;SDS011;15886;49.170;14.572;2022-11-20T16:11:24;182.40;;;87.70;;
28714;SDS011;15886;49.170;14.572;2022-11-20T16:14:05;196.88;;;91.78;;
28714;SDS011;15886;49.170;14.572;2022-11-20T16:17:08;199.85;;;95.35;;
28714;SDS011;15886;49.170;14.572;2022-11-20T16:19:37;209.32;;;97.47;;
28714;SDS011;15886;49.170;14.572;2022-11-20T16:22:05;198.70;;;97.05;;
28714;SDS011;15886;49.170;14.572;2022-11-20T16:24:33;180.13;;;91.57;;
28714;SDS011;15886;49.170;14.572;2022-11-20T16:27:02;191.95;;;95.57;;
28714;SDS011;15886;49.170;14.572;2022-11-20T16:29:32;196.35;;;92.32;;
28714;SDS011;15886;49.170;14.572;2022-11-20T16:32:01;205.07;;;95.75;;
28714;SDS011;15886;49.170;14.572;2022-11-20T16:34:32;204.90;;;98.55;;
28714;SDS011;15886;49.170;14.572;2022-11-20T16:37:02;202.13;;;98.03;;
28714;SDS011;15886;49.170;14.572;2022-11-20T16:39:31;172.30;;;78.32;;
28714;SDS011;15886;49.170;14.572;2022-11-20T16:42:04;158.07;;;76.25;;
28714;SDS011;15886;49.170;14.572;2022-11-20T16:44:33;182.30;;;87.15;;
28714;SDS011;15886;49.170;14.572;2022-11-20T16:47:02;181.13;;;90.63;;
28714;SDS011;15886;49.170;14.572;2022-11-20T16:49:31;178.43;;;86.10;;
28714;SDS011;15886;49.170;14.572;2022-11-20T16:52:01;180.90;;;88.63;;
28714;SDS011;15886;49.170;14.572;2022-11-20T16:54:29;172.55;;;83.32;;
28714;SDS011;15886;49.170;14.572;2022-11-20T16:56:59;133.07;;;67.55;;
28714;SDS011;15886;49.170;14.572;2022-11-20T16:59:36;105.78;;;53.60;;
28714;SDS011;15886;49.170;14.572;2022-11-20T17:55:10;78.82;;;28.48;;
28714;SDS011;15886;49.170;14.572;2022-11-20T18:32:08;9.93;;;5.70;;
28714;SDS011;15886;49.170;14.572;2022-11-20T18:34:37;12.38;;;6.70;;
28714;SDS011;15886;49.170;14.572;2022-11-20T18:43:26;9.35;;;5.55;;
28714;SDS011;15886;49.170;14.572;2022-11-20T18:50:03;15.95;;;8.07;;
28714;SDS011;15886;49.170;14.572;2022-11-20T18:52:41;18.88;;;7.82;;
28714;SDS011;15886;49.170;14.572;2022-11-20T18:55:16;20.25;;;7.90;;
28714;SDS011;15886;49.170;14.572;2022-11-20T18:58:24;18.20;;;8.70;;
28714;SDS011;15886;49.170;14.572;2022-11-20T19:01:10;16.58;;;7.93;;
28714;SDS011;15886;49.170;14.572;2022-11-20T19:04:06;31.35;;;10.93;;
28714;SDS011;15886;49.170;14.572;2022-11-20T19:06:44;17.67;;;8.07;;
28714;SDS011;15886;49.170;14.572;2022-11-20T19:13:02;16.98;;;8.20;;
28714;SDS011;15886;49.170;14.572;2022-11-20T19:22:03;13.38;;;7.00;;
28714;SDS011;15886;49.170;14.572;2022-11-20T19:28:38;15.38;;;8.60;;
28714;SDS011;15886;49.170;14.572;2022-11-20T19:34:38;22.33;;;11.63;;
28714;SDS011;15886;49.170;14.572;2022-11-20T19:47:15;13.82;;;7.22;;
28714;SDS011;15886;49.170;14.572;2022-11-20T19:55:56;22.02;;;12.43;;
28714;SDS011;15886;49.170;14.572;2022-11-20T19:58:44;38.13;;;18.50;;
28714;SDS011;15886;49.170;14.572;2022-11-20T20:19:22;52.03;;;26.10;;
28714;SDS011;15886;49.170;14.572;2022-11-20T20:22:29;95.78;;;43.00;;
28714;SDS011;15886;49.170;14.572;2022-11-20T20:25:26;58.20;;;29.20;;
